Latest Weather Observations for Ballina

IDN60801

Issued at 5:02 am EST Saturday 23 May 2015 (issued every 30 minutes, with the page automatically refreshed every 10 minutes)

About weather observations | Map of weather stations | Latest weather observations for NSW | Other Formats
Station Details ID: 058198 Name: BALLINA AIRPORT AWS Lat: -28.84 Lon: 153.56 Height: 1.3 m
Data from the previous 72 hours. | See also: Recent months at Ballina
Date/Time
EST
Temp
°C
App
Temp
°C
Dew
Point
Rel
Hum
%
Delta-T
°C
Wind Press
QNH
hPa
Press
MSL
hPa
Rain
since 9 am
mm
Dir
 
Spd
km/h
Gust
km/h
Spd
kts
Gust
kts
23/05:00am 14.8 10.6 11.2 79 1.9 SW 24 39 13 21 1020.5 1020.5 0.2
23/04:30am 15.0 11.6 11.4 79 1.9 SW 20 30 11 16 1020.5 1020.5 0.0
23/04:00am 15.6 11.3 10.6 72 2.6 SW 24 33 13 18 1020.0 1020.0 0.0
23/03:30am 15.7 11.1 10.9 73 2.6 SW 26 33 14 18 1019.8 1019.8 0.0
23/03:00am 16.0 11.8 11.0 72 2.7 SW 24 37 13 20 1019.7 1019.7 0.0
23/02:30am 16.1 12.2 10.8 71 2.8 SW 22 35 12 19 1019.7 1019.7 0.0
23/02:00am 16.5 12.3 11.2 71 2.8 SW 24 39 13 21 1019.8 1019.8 0.0
23/01:30am 16.6 12.1 11.5 72 2.8 SW 26 37 14 20 1019.6 1019.6 0.0
23/01:04am 17.3 12.5 11.6 69 3.1 SW 28 46 15 25 1019.8 1019.8 0.0
23/01:00am 16.8 12.5 10.9 68 3.2 SW 24 35 13 19 1019.9 1019.9 0.0
23/12:30am 17.3 12.7 10.9 66 3.4 SW 26 43 14 23 1019.5 1019.5 0.0
23/12:00am 17.0 12.8 11.1 68 3.2 SW 24 37 13 20 1019.2 1019.2 0.0
 
Date/Time
EST
Temp
°C
App
Temp
°C
Dew
Point
Rel
Hum
%
Delta-T
°C
Wind Press
QNH
hPa
Press
MSL
hPa
Rain
since 9 am
mm
Dir
 
Spd
km/h
Gust
km/h
Spd
kts
Gust
kts
22/11:30pm 17.1 12.6 11.4 69 3.1 SW 26 39 14 21 1019.0 1019.0 0.0
22/11:00pm 16.7 12.1 11.0 69 3.0 SW 26 37 14 20 1018.9 1018.9 0.0
22/10:30pm 16.5 12.0 9.9 65 3.5 SW 24 30 13 16 1018.6 1018.6 0.0
22/10:00pm 16.8 12.6 9.7 63 3.7 SW 22 35 12 19 1018.5 1018.5 0.0
22/09:30pm 16.9 12.8 8.8 59 4.2 SW 20 30 11 16 1018.0 1018.0 0.0
22/09:00pm 17.1 12.9 8.3 56 4.5 WSW 20 30 11 16 1017.9 1017.9 0.0
22/08:30pm 17.2 12.7 8.4 56 4.5 WSW 22 32 12 17 1017.4 1017.4 0.0
22/08:00pm 16.9 12.7 8.1 56 4.5 WSW 20 26 11 14 1016.9 1016.9 0.0
22/07:30pm 16.7 11.7 8.1 57 4.4 W 24 32 13 17 1016.4 1016.4 0.0
22/07:00pm 16.2 12.9 8.2 59 4.0 W 15 20 8 11 1016.0 1016.0 0.0
22/06:30pm 15.2 11.9 8.2 63 3.5 W 15 20 8 11 1015.7 1015.7 0.0
22/06:00pm 15.1 11.8 8.1 63 3.5 W 15 19 8 10 1015.1 1015.1 0.0
22/05:30pm 16.2 12.8 7.7 57 4.3 WSW 15 20 8 11 1014.7 1014.7 0.0
22/05:00pm 16.5 13.0 7.4 55 4.5 W 15 20 8 11 1014.6 1014.6 0.0
22/04:30pm 18.4 14.2 7.5 49 5.5 WSW 19 28 10 15 1014.4 1014.4 0.0
22/04:00pm 19.2 14.4 7.3 46 6.0 WSW 22 32 12 17 1014.0 1014.0 0.0
22/03:30pm 19.6 14.1 7.4 45 6.2 W 26 35 14 19 1013.6 1013.6 0.0
22/03:00pm 19.7 13.3 7.1 44 6.4 W 30 39 16 21 1013.5 1013.5 0.0
22/02:30pm 19.9 13.6 7.3 44 6.4 W 30 43 16 23 1013.3 1013.3 0.0
22/02:00pm 20.1 13.8 8.8 48 5.9 W 32 43 17 23 1013.6 1013.6 0.0
22/01:30pm 19.7 13.0 8.1 47 6.0 W 33 46 18 25 1013.5 1013.5 0.0
22/01:00pm 19.5 13.4 8.2 48 5.8 W 30 39 16 21 1013.9 1013.9 0.0
22/12:30pm 19.5 12.5 8.5 49 5.7 W 35 44 19 24 1014.1 1014.1 0.0
22/12:00pm 19.2 12.4 7.9 48 5.8 W 33 48 18 26 1014.2 1014.2 0.0
22/11:30am 18.9 12.4 8.3 50 5.5 W 32 48 17 26 1014.7 1014.7 0.0
22/11:15am 18.8 12.3 8.2 50 5.5 W 32 50 17 27 1015.0 1015.0 0.0
22/11:00am 18.3 10.5 8.3 52 5.1 W 39 52 21 28 1015.1 1015.1 0.0
22/10:30am 17.9 10.4 7.9 52 5.1 W 37 48 20 26 1015.3 1015.3 0.0
22/10:00am 17.9 11.5 8.7 55 4.7 W 32 44 17 24 1015.5 1015.5 0.0
22/09:42am 17.4 9.6 8.3 55 4.7 W 39 57 21 31 1015.4 1015.4 0.0
22/09:30am 17.5 10.7 9.4 59 4.2 W 35 46 19 25 1015.3 1015.3 0.0
22/09:03am 17.4 10.9 10.5 64 3.7 W 35 54 19 29 1015.3 1015.3 0.0
22/09:00am 17.0 9.9 9.4 61 4.0 W 37 54 20 29 1015.3 1015.3 3.8
22/08:57am 17.1 10.7 9.3 60 4.1 WNW 33 54 18 29 1015.3 1015.3 3.8
22/08:30am 17.2 13.4 11.2 68 3.2 WNW 22 37 12 20 1015.2 1015.2 3.8
22/08:00am 16.6 14.5 12.4 76 2.3 WNW 15 20 8 11 1015.2 1015.2 3.8
22/07:30am 16.0 14.5 12.0 77 2.2 WNW 11 15 6 8 1015.0 1015.0 3.8
22/07:00am 15.1 13.7 12.1 82 1.6 WNW 11 17 6 9 1014.9 1014.9 3.8
22/06:30am 14.5 12.2 11.8 84 1.5 W 15 17 8 9 1014.9 1014.9 3.8
22/06:00am 14.9 12.4 12.4 85 1.4 W 17 19 9 10 1014.7 1014.7 3.8
22/05:30am 15.3 12.3 12.4 83 1.6 W 20 26 11 14 1014.7 1014.7 3.8
22/05:00am 15.6 14.0 12.7 83 1.6 WNW 13 20 7 11 1014.4 1014.4 3.8
22/04:30am 15.2 15.0 13.1 87 1.2 NNW 6 7 3 4 1014.2 1014.2 3.8
22/04:00am 15.8 14.4 13.3 85 1.4 WNW 13 17 7 9 1014.3 1014.3 3.8
22/03:30am 16.1 14.3 13.4 84 1.5 WNW 15 19 8 10 1014.2 1014.2 3.8
22/03:00am 15.9 14.6 13.7 87 1.2 WNW 13 17 7 9 1014.2 1014.2 3.8
22/02:30am 15.8 14.9 13.8 88 1.1 W 11 15 6 8 1014.6 1014.6 3.8
22/02:00am 16.4 14.4 13.9 85 1.4 WNW 17 22 9 12 1014.7 1014.7 3.8
22/01:30am 15.9 16.0 14.4 91 0.9 WNW 7 11 4 6 1014.8 1014.8 3.8
22/01:00am 15.8 16.7 15.0 95 0.5 NW 4 9 2 5 1015.4 1015.4 3.8
22/12:30am 15.9 15.9 15.3 96 0.3 NW 9 13 5 7 1015.6 1015.6 3.8
22/12:00am 15.9 16.3 15.4 97 0.3 NNW 7 9 4 5 1015.9 1015.9 3.8
 
Date/Time
EST
Temp
°C
App
Temp
°C
Dew
Point
Rel
Hum
%
Delta-T
°C
Wind Press
QNH
hPa
Press
MSL
hPa
Rain
since 9 am
mm
Dir
 
Spd
km/h
Gust
km/h
Spd
kts
Gust
kts
21/11:30pm 15.6 16.1 15.1 97 0.3 NNW 6 7 3 4 1016.3 1016.3 3.8
21/11:00pm 15.8 16.4 15.2 96 0.3 NNW 6 7 3 4 1016.6 1016.6 3.8
21/10:30pm 16.0 16.7 15.5 97 0.3 NNW 6 7 3 4 1016.8 1016.8 3.8
21/10:00pm 16.1 16.8 15.6 97 0.3 NNW 6 7 3 4 1017.1 1017.1 3.8
21/09:30pm 16.0 16.5 15.5 97 0.3 NW 7 9 4 5 1017.3 1017.3 3.6
21/09:00pm 16.1 16.6 15.6 97 0.3 N 7 9 4 5 1017.0 1017.0 3.6
21/08:30pm 16.2 16.9 15.7 97 0.3 NNW 6 9 3 5 1016.9 1016.9 3.6
21/08:00pm 16.1 17.9 15.5 96 0.3 CALM 0 0 0 0 1017.1 1017.1 3.2
21/07:30pm 16.3 17.4 15.7 96 0.4 N 4 9 2 5 1017.7 1017.7 3.0
21/07:00pm 16.4 17.2 15.8 96 0.4 N 6 7 3 4 1017.4 1017.4 2.2
21/06:30pm 16.6 18.5 15.8 95 0.5 CALM 0 0 0 0 1017.2 1017.2 1.2
21/06:00pm 16.4 16.1 15.4 94 0.6 E 11 15 6 8 1016.5 1016.5 1.0
21/05:30pm 16.5 16.9 15.4 93 0.6 SW 7 9 4 5 1017.2 1017.2 1.0
21/05:00pm 16.6 17.0 15.3 92 0.8 SW 7 11 4 6 1017.5 1017.5 1.0
21/04:30pm 16.6 15.8 15.0 90 0.9 WSW 13 17 7 9 1017.5 1017.5 0.6
21/04:00pm 17.1 15.6 15.4 90 1.0 WSW 17 20 9 11 1017.5 1017.5 0.6
21/03:30pm 17.4 15.9 15.2 87 1.3 WSW 17 24 9 13 1017.5 1017.5 0.2
21/03:00pm 17.9 16.2 14.8 82 1.8 WSW 17 22 9 12 1016.9 1016.9 0.2
21/02:30pm 17.9 16.6 14.8 82 1.8 SW 15 20 8 11 1016.8 1016.8 0.2
21/02:00pm 18.6 17.3 14.9 79 2.2 SSW 15 22 8 12 1016.3 1016.3 0.2
21/01:30pm 18.6 16.9 15.7 83 1.7 SW 19 28 10 15 1016.9 1016.9 0.2
21/01:00pm 17.9 15.7 15.9 88 1.2 SW 22 32 12 17 1017.1 1017.1 0.2
21/12:30pm 17.7 15.1 16.0 90 1.0 SW 24 33 13 18 1017.6 1017.6 0.2
21/12:00pm 20.0 18.1 16.6 81 2.0 SSW 22 32 12 17 1018.0 1018.0 0.0
21/11:30am 21.4 19.8 16.6 74 2.9 SSW 20 26 11 14 1018.0 1018.0 0.0
21/11:00am 22.2 22.0 17.6 75 2.8 S 15 22 8 12 1018.1 1018.1 0.0
21/10:40am 22.0 21.8 17.6 76 2.7 S 15 20 8 11 1018.2 1018.2 0.0
21/10:30am 21.9 22.1 17.7 77 2.6 SSW 13 19 7 10 1018.4 1018.4 0.0
21/10:25am 21.9 22.2 17.9 78 2.5 SSW 13 19 7 10 1018.4 1018.4 0.0
21/10:00am 22.3 23.4 17.9 76 2.7 SSW 9 15 5 8 1018.1 1018.1 0.0
21/09:30am 22.2 23.3 18.0 77 2.6 WSW 9 13 5 7 1018.3 1018.3 0.0
21/09:00am 21.3 21.9 17.7 80 2.2 SW 11 15 6 8 1018.4 1018.4 0.0
21/08:30am 20.2 21.4 17.4 84 1.7 WNW 7 11 4 6 1018.4 1018.4 0.0
21/08:00am 18.7 21.1 17.9 95 0.5 WNW 2 7 1 4 1018.1 1018.1 0.0
21/07:30am 18.1 19.7 17.9 99 0.1 WNW 6 9 3 5 1018.4 1018.4 0.0
21/07:00am 16.7 17.8 16.5 99 0.1 WNW 6 11 3 6 1018.2 1018.2 0.0
21/06:30am 16.2 16.5 15.9 98 0.2 SE 9 11 5 6 1017.5 1017.5 0.0
21/06:00am 16.1 18.0 15.8 98 0.2 CALM 0 0 0 0 1017.2 1017.2 0.0
21/05:58am 16.1 18.0 15.8 98 0.2 CALM 0 0 0 0 1017.1 1017.1 0.0
21/05:30am 16.2 18.1 15.7 97 0.3 CALM 0 0 0 0 1016.9 1016.9 0.0
21/05:00am 16.9 19.1 16.4 97 0.3 CALM 0 0 0 0 1016.7 1016.7 0.0
21/04:54am 16.7 18.8 16.2 97 0.3 CALM 0 0 0 0 1016.7 1016.7 0.0
21/04:30am 17.0 19.2 16.5 97 0.3 CALM 0 0 0 0 1016.7 1016.7 0.0
21/04:00am 17.5 19.9 17.0 97 0.3 CALM 0 0 0 0 1016.8 1016.8 0.0
21/03:30am 17.6 19.2 17.0 96 0.4 NNW 4 7 2 4 1016.7 1016.7 0.0
21/03:00am 17.6 20.0 17.0 96 0.4 CALM 0 0 0 0 1016.6 1016.6 0.0
21/02:30am 17.8 20.2 17.0 95 0.5 CALM 0 0 0 0 1016.7 1016.7 0.0
21/02:00am 18.3 19.7 17.7 96 0.4 N 7 9 4 5 1016.6 1016.6 0.0
21/01:30am 18.3 19.6 17.5 95 0.5 WNW 7 9 4 5 1016.9 1016.9 0.0
21/01:00am 18.4 20.6 17.4 94 0.6 N 2 6 1 3 1017.2 1017.2 0.0
21/12:30am 18.7 20.2 17.7 94 0.6 N 6 7 3 4 1017.4 1017.4 0.0
21/12:00am 18.6 21.2 17.6 94 0.6 CALM 0 0 0 0 1017.6 1017.6 0.0
 
Date/Time
EST
Temp
°C
App
Temp
°C
Dew
Point
Rel
Hum
%
Delta-T
°C
Wind Press
QNH
hPa
Press
MSL
hPa
Rain
since 9 am
mm
Dir
 
Spd
km/h
Gust
km/h
Spd
kts
Gust
kts
20/11:30pm 18.2 19.5 17.0 93 0.7 N 6 9 3 5 1017.5 1017.5 0.0
20/11:00pm 18.8 20.1 17.5 92 0.8 N 7 13 4 7 1017.8 1017.8 0.0
20/10:30pm 18.5 19.8 17.5 94 0.6 N 7 9 4 5 1018.0 1018.0 0.0
20/10:00pm 18.7 20.0 17.5 93 0.7 N 7 9 4 5 1017.7 1017.7 0.0
20/09:30pm 19.2 20.3 17.9 92 0.8 N 9 9 5 5 1017.9 1017.9 0.0
20/09:00pm 19.3 20.7 17.8 91 0.9 N 7 9 4 5 1018.0 1018.0 0.0
20/08:30pm 19.4 20.5 18.1 92 0.8 N 9 11 5 6 1018.0 1018.0 0.0
20/08:00pm 19.7 20.9 18.2 91 0.9 N 9 11 5 6 1018.0 1018.0 0.0
20/07:30pm 20.0 21.1 18.0 88 1.2 NNE 9 11 5 6 1017.6 1017.6 0.0
20/07:00pm 20.4 21.6 18.2 87 1.4 NNE 9 13 5 7 1017.4 1017.4 0.0
20/06:30pm 20.4 21.2 18.2 87 1.4 N 11 13 6 7 1017.5 1017.5 0.0
20/06:00pm 20.5 21.3 18.1 86 1.5 N 11 13 6 7 1017.4 1017.4 0.0
20/05:30pm 20.7 21.8 17.9 84 1.7 NNE 9 11 5 6 1017.1 1017.1 0.0
20/05:00pm 21.0 22.0 17.8 82 2.0 NNE 9 11 5 6 1017.2 1017.2 0.0
20/04:30pm 22.5 23.3 18.1 76 2.7 NE 11 15 6 8 1017.0 1017.0 0.0
20/04:00pm 24.2 24.5 17.0 64 4.4 NNE 11 15 6 8 1017.0 1017.0 0.0
20/03:30pm 24.8 25.1 17.0 62 4.8 N 11 17 6 9 1016.8 1016.8 0.0
20/03:00pm 24.6 23.9 16.3 60 5.1 NNW 15 19 8 10 1016.9 1016.9 0.0
20/02:30pm 25.7 26.2 16.5 56 5.7 NNW 9 17 5 9 1016.8 1016.8 0.0
20/02:00pm 25.8 25.9 16.6 56 5.7 NW 11 15 6 8 1016.9 1016.9 0.0
20/01:30pm 25.9 26.2 17.0 58 5.5 NNW 11 19 6 10 1017.1 1017.1 0.0
20/01:00pm 25.1 24.8 16.5 59 5.3 NNW 13 17 7 9 1017.2 1017.2 0.0
20/12:30pm 24.9 24.8 16.9 61 4.9 NNW 13 17 7 9 1017.7 1017.7 0.0
20/12:00pm 24.7 24.9 16.7 61 4.9 NW 11 17 6 9 1017.8 1017.8 0.0
20/11:30am 24.9 24.5 16.3 59 5.3 WNW 13 20 7 11 1018.2 1018.2 0.0
20/11:00am 24.6 24.1 15.8 58 5.3 NW 13 20 7 11 1018.7 1018.7 0.0
20/10:30am 24.2 23.8 16.2 61 4.9 NW 13 19 7 10 1019.3 1019.3 0.0
20/10:00am 23.1 23.5 16.2 65 4.2 NNW 9 13 5 7 1019.6 1019.6 0.0
20/09:30am 22.0 22.6 16.9 73 3.1 NW 9 11 5 6 1019.9 1019.9 0.0
20/09:00am 20.7 22.5 17.5 82 2.0 NE 4 7 2 4 1019.9 1019.9 0.2
20/08:30am 18.8 20.9 18.0 95 0.5 ENE 4 6 2 3 1019.9 1019.9 0.2
20/08:00am 17.2 19.6 17.0 99 0.1 CALM 0 0 0 0 1019.7 1019.7 0.2
20/07:30am 16.2 18.2 16.0 99 0.1 CALM 0 0 0 0 1019.6 1019.6 0.2
20/07:00am 14.8 16.3 14.6 99 0.1 CALM 0 0 0 0 1019.1 1019.1 0.2
20/06:30am 13.6 14.7 13.4 99 0.1 CALM 0 0 0 0 1018.9 1018.9 0.2
20/06:00am 13.5 14.5 13.3 99 0.1 CALM 0 0 0 0 1018.5 1018.5 0.2
20/05:30am 14.0 15.2 13.8 99 0.1 CALM 0 0 0 0 1018.4 1018.4 0.0

Other Formats:

Comma delimited format used in spreadsheet applications
http://www.bom.gov.au/fwo/IDN60801/IDN60801.94596.axf

JavaScript Object Notation format (JSON) in row-major order
http://www.bom.gov.au/fwo/IDN60801/IDN60801.94596.json